Disclaimer

    

CYCD

LWIS CYCD 211000Z AUTO 27002KT 08/08 A3006=

LWIS CYCD 210900Z AUTO 00000KT 08/08 A3006=

LWIS CYCD 210800Z AUTO 00000KT 08/08 A3006=

TAF AMD CYCD 210015Z 2100/2104 VRB03KT 5SM -RA BR OVC005 TEMPO 2100/2104 P6SM NSW SCT005 BKN030 RMK NXT FCST WILL BE ISSUED AT 211445Z=

CYVR

SPECI CYVR 211030Z 09007KT 20SM -RA FEW047 BKN056 OVC070 08/07 A3008 RMK SC1SC6AC1 SLP187=

METAR CYVR 211000Z 07007KT 20SM FEW020 BKN042 OVC067 08/07 A3008 RMK SC1SC4AC3 SLP188=

METAR CYVR 210900Z 08006KT 20SM FEW044 BKN056 OVC085 08/07 A3008 RMK SC1SC6AC1 SLP186=

METAR CYVR 210800Z 10006KT 20SM FEW047 BKN082 OVC180 07/07 A3007 RMK SC1AC6AC1 SLP185=

TAF CYVR 210839Z 2109/2212 10006KT P6SM FEW020 BKN040 TEMPO 2109/2110 5SM -RA BR BKN012 OVC040
FM211000 10008KT P6SM -RA SCT012 OVC040 TEMPO 2111/2121 3SM RA BR BKN008 OVC012 BECMG 2114/2116 16010KT
FM212100 10012KT 6SM -RA BR OVC020
FM220400 10010KT P6SM SCT015 OVC040 TEMPO 2204/2212 P6SM -RA BKN015 OVC040 RMK NXT FCST BY 211200Z=

CYXX

SPECI CYXX 211006Z 03003KT 310V040 6SM -SHRA FEW003 BKN025 OVC055 08/07 A3010 RMK SF2CU3SC3 SLP194=

METAR CYXX 211000Z VRB02KT 7SM FEW003 BKN025 OVC054 08/07 A3010 RMK SF2CU3SC3 SLP195=

METAR CYXX 210900Z 02002KT 10SM FEW003 SCT012 OVC065 07/07 A3008 RMK SF2SC2SC4 SLP190=

METAR CYXX 210800Z VRB02KT 10SM FEW004 SCT020 OVC055 07/07 A3008 RMK SF1CU3SC4 SLP188=

TAF AMD CYXX 211018Z 2110/2206 18008KT P6SM -RA FEW006 BKN025 OVC050 TEMPO 2110/2121 3SM SHRA BR BKN006 OVC020 PROB30 2110/2118 11/2SM RA BR BKN005
FM212100 VRB03KT P6SM -RA SCT020 OVC030 TEMPO 2121/2206 5SM RA BR OVC020 BECMG 2122/2124 06008KT RMK NXT FCST BY 211200Z=

Supplemental information

Lower mainland ATIS: 1-877-517-2847

CZBB (Boundary Bay) current winds

Upper winds (Vancouver)

Data fromValid at300060009000
21000021060027152815-012920-05
21000021120021182628+002816-06
21000022000016252435+042738+00

NOTAMs

Ten newest NOTAMs per file () are highlighted.